sensor_id;sensor_type;location;lat;lon;timestamp;P1;durP1;ratioP1;P2;durP2;ratioP2
3249;SDS011;1637;42.020;23.992;2022-10-31T00:01:21;54.17;;;25.87;;
3249;SDS011;1637;42.020;23.992;2022-10-31T00:03:50;54.23;;;27.63;;
3249;SDS011;1637;42.020;23.992;2022-10-31T00:06:18;53.17;;;25.67;;
3249;SDS011;1637;42.020;23.992;2022-10-31T00:08:45;55.07;;;24.30;;
3249;SDS011;1637;42.020;23.992;2022-10-31T00:11:12;41.60;;;19.23;;
3249;SDS011;1637;42.020;23.992;2022-10-31T00:13:39;56.47;;;25.10;;
3249;SDS011;1637;42.020;23.992;2022-10-31T00:16:12;55.33;;;26.90;;
3249;SDS011;1637;42.020;23.992;2022-10-31T00:18:40;60.30;;;25.77;;
3249;SDS011;1637;42.020;23.992;2022-10-31T00:21:07;60.90;;;26.80;;
3249;SDS011;1637;42.020;23.992;2022-10-31T00:23:35;62.10;;;24.33;;
3249;SDS011;1637;42.020;23.992;2022-10-31T00:26:02;54.00;;;24.23;;
3249;SDS011;1637;42.020;23.992;2022-10-31T00:28:30;68.03;;;32.30;;
3249;SDS011;1637;42.020;23.992;2022-10-31T00:31:00;173.00;;;86.90;;
3249;SDS011;1637;42.020;23.992;2022-10-31T00:33:27;93.40;;;44.13;;
3249;SDS011;1637;42.020;23.992;2022-10-31T00:35:55;68.03;;;35.20;;
3249;SDS011;1637;42.020;23.992;2022-10-31T00:38:22;48.93;;;24.17;;
3249;SDS011;1637;42.020;23.992;2022-10-31T00:40:50;33.50;;;20.03;;
3249;SDS011;1637;42.020;23.992;2022-10-31T00:43:17;36.43;;;18.67;;
3249;SDS011;1637;42.020;23.992;2022-10-31T00:45:44;44.50;;;22.70;;
3249;SDS011;1637;42.020;23.992;2022-10-31T00:48:11;102.03;;;43.80;;
3249;SDS011;1637;42.020;23.992;2022-10-31T00:50:38;47.33;;;23.67;;
3249;SDS011;1637;42.020;23.992;2022-10-31T00:53:05;79.23;;;38.57;;
3249;SDS011;1637;42.020;23.992;2022-10-31T00:55:32;75.33;;;38.00;;
3249;SDS011;1637;42.020;23.992;2022-10-31T00:58:00;64.03;;;33.07;;
3249;SDS011;1637;42.020;23.992;2022-10-31T01:00:27;73.97;;;36.83;;
3249;SDS011;1637;42.020;23.992;2022-10-31T01:02:54;58.83;;;31.63;;
3249;SDS011;1637;42.020;23.992;2022-10-31T01:05:21;60.07;;;30.60;;
3249;SDS011;1637;42.020;23.992;2022-10-31T01:07:48;63.43;;;29.13;;
3249;SDS011;1637;42.020;23.992;2022-10-31T01:10:15;65.40;;;31.67;;
3249;SDS011;1637;42.020;23.992;2022-10-31T01:12:43;76.00;;;36.57;;
3249;SDS011;1637;42.020;23.992;2022-10-31T01:15:13;80.30;;;43.10;;
3249;SDS011;1637;42.020;23.992;2022-10-31T01:17:42;74.97;;;37.30;;
3249;SDS011;1637;42.020;23.992;2022-10-31T01:20:09;79.87;;;34.30;;
3249;SDS011;1637;42.020;23.992;2022-10-31T01:22:38;70.63;;;31.60;;
3249;SDS011;1637;42.020;23.992;2022-10-31T01:25:06;70.50;;;32.33;;
3249;SDS011;1637;42.020;23.992;2022-10-31T01:27:33;69.40;;;32.30;;
3249;SDS011;1637;42.020;23.992;2022-10-31T01:30:00;79.97;;;33.30;;
3249;SDS011;1637;42.020;23.992;2022-10-31T01:32:28;67.13;;;29.10;;
3249;SDS011;1637;42.020;23.992;2022-10-31T01:34:55;71.93;;;31.87;;
3249;SDS011;1637;42.020;23.992;2022-10-31T01:37:22;69.57;;;30.80;;
3249;SDS011;1637;42.020;23.992;2022-10-31T01:39:49;69.70;;;32.03;;
3249;SDS011;1637;42.020;23.992;2022-10-31T01:42:17;85.60;;;34.50;;
3249;SDS011;1637;42.020;23.992;2022-10-31T01:44:56;77.50;;;34.60;;
3249;SDS011;1637;42.020;23.992;2022-10-31T01:47:27;86.90;;;35.40;;
3249;SDS011;1637;42.020;23.992;2022-10-31T01:50:03;97.30;;;38.20;;
3249;SDS011;1637;42.020;23.992;2022-10-31T01:52:35;87.67;;;37.83;;
3249;SDS011;1637;42.020;23.992;2022-10-31T01:55:07;107.37;;;43.13;;
3249;SDS011;1637;42.020;23.992;2022-10-31T01:57:39;106.37;;;39.53;;
3249;SDS011;1637;42.020;23.992;2022-10-31T02:00:10;91.97;;;37.00;;
3249;SDS011;1637;42.020;23.992;2022-10-31T02:02:40;101.17;;;40.80;;
3249;SDS011;1637;42.020;23.992;2022-10-31T02:05:09;93.70;;;34.97;;
3249;SDS011;1637;42.020;23.992;2022-10-31T02:07:39;89.10;;;34.87;;
3249;SDS011;1637;42.020;23.992;2022-10-31T02:10:10;85.60;;;34.23;;
3249;SDS011;1637;42.020;23.992;2022-10-31T02:12:37;77.60;;;32.70;;
3249;SDS011;1637;42.020;23.992;2022-10-31T02:15:06;73.63;;;31.83;;
3249;SDS011;1637;42.020;23.992;2022-10-31T02:17:34;65.97;;;28.00;;
3249;SDS011;1637;42.020;23.992;2022-10-31T02:20:05;68.03;;;26.40;;
3249;SDS011;1637;42.020;23.992;2022-10-31T02:22:45;59.43;;;26.50;;
3249;SDS011;1637;42.020;23.992;2022-10-31T02:25:32;57.07;;;27.70;;
3249;SDS011;1637;42.020;23.992;2022-10-31T02:28:30;77.57;;;35.97;;
3249;SDS011;1637;42.020;23.992;2022-10-31T02:31:16;85.17;;;40.27;;
3249;SDS011;1637;42.020;23.992;2022-10-31T02:33:53;160.93;;;57.57;;
3249;SDS011;1637;42.020;23.992;2022-10-31T02:36:25;165.60;;;69.70;;
3249;SDS011;1637;42.020;23.992;2022-10-31T02:38:59;237.27;;;94.47;;
3249;SDS011;1637;42.020;23.992;2022-10-31T02:41:35;232.13;;;92.97;;
3249;SDS011;1637;42.020;23.992;2022-10-31T02:44:09;273.53;;;102.73;;
3249;SDS011;1637;42.020;23.992;2022-10-31T02:46:44;173.37;;;72.17;;
3249;SDS011;1637;42.020;23.992;2022-10-31T02:49:17;174.50;;;72.07;;
3249;SDS011;1637;42.020;23.992;2022-10-31T02:51:49;188.17;;;71.20;;
3249;SDS011;1637;42.020;23.992;2022-10-31T02:54:21;138.40;;;55.93;;
3249;SDS011;1637;42.020;23.992;2022-10-31T02:56:49;182.47;;;69.77;;
3249;SDS011;1637;42.020;23.992;2022-10-31T02:59:19;173.63;;;63.80;;
3249;SDS011;1637;42.020;23.992;2022-10-31T03:02:00;184.40;;;68.60;;
3249;SDS011;1637;42.020;23.992;2022-10-31T03:04:43;140.70;;;56.43;;
3249;SDS011;1637;42.020;23.992;2022-10-31T03:07:25;147.67;;;56.67;;
3249;SDS011;1637;42.020;23.992;2022-10-31T03:10:00;134.53;;;53.80;;
3249;SDS011;1637;42.020;23.992;2022-10-31T03:12:33;128.50;;;52.10;;
3249;SDS011;1637;42.020;23.992;2022-10-31T03:15:11;132.43;;;54.20;;
3249;SDS011;1637;42.020;23.992;2022-10-31T03:17:45;129.67;;;52.93;;
3249;SDS011;1637;42.020;23.992;2022-10-31T03:20:17;119.87;;;48.33;;
3249;SDS011;1637;42.020;23.992;2022-10-31T03:22:48;115.43;;;50.00;;
3249;SDS011;1637;42.020;23.992;2022-10-31T03:25:15;112.90;;;43.97;;
3249;SDS011;1637;42.020;23.992;2022-10-31T03:27:43;102.23;;;45.63;;
3249;SDS011;1637;42.020;23.992;2022-10-31T03:30:12;95.00;;;42.50;;
3249;SDS011;1637;42.020;23.992;2022-10-31T03:32:40;99.03;;;43.23;;
3249;SDS011;1637;42.020;23.992;2022-10-31T03:35:13;84.87;;;38.47;;
3249;SDS011;1637;42.020;23.992;2022-10-31T03:37:43;82.60;;;37.87;;
3249;SDS011;1637;42.020;23.992;2022-10-31T03:40:12;80.23;;;37.60;;
3249;SDS011;1637;42.020;23.992;2022-10-31T03:42:43;81.00;;;33.80;;
3249;SDS011;1637;42.020;23.992;2022-10-31T03:45:17;99.03;;;38.10;;
3249;SDS011;1637;42.020;23.992;2022-10-31T03:47:50;116.63;;;49.47;;
3249;SDS011;1637;42.020;23.992;2022-10-31T03:50:19;127.03;;;52.17;;
3249;SDS011;1637;42.020;23.992;2022-10-31T03:52:47;141.70;;;62.80;;
3249;SDS011;1637;42.020;23.992;2022-10-31T03:55:18;140.40;;;58.20;;
3249;SDS011;1637;42.020;23.992;2022-10-31T03:57:50;147.87;;;65.97;;
3249;SDS011;1637;42.020;23.992;2022-10-31T04:00:22;120.63;;;46.90;;
3249;SDS011;1637;42.020;23.992;2022-10-31T04:02:51;102.20;;;46.00;;
3249;SDS011;1637;42.020;23.992;2022-10-31T04:05:22;104.90;;;46.40;;
3249;SDS011;1637;42.020;23.992;2022-10-31T04:07:50;112.33;;;50.30;;
3249;SDS011;1637;42.020;23.992;2022-10-31T04:10:21;159.67;;;78.63;;
3249;SDS011;1637;42.020;23.992;2022-10-31T04:12:50;93.83;;;44.40;;
3249;SDS011;1637;42.020;23.992;2022-10-31T04:15:22;49.03;;;21.00;;
3249;SDS011;1637;42.020;23.992;2022-10-31T04:17:53;57.23;;;25.43;;
3249;SDS011;1637;42.020;23.992;2022-10-31T04:20:30;52.43;;;27.67;;
3249;SDS011;1637;42.020;23.992;2022-10-31T04:22:58;65.27;;;31.90;;
3249;SDS011;1637;42.020;23.992;2022-10-31T04:25:25;72.10;;;34.53;;
3249;SDS011;1637;42.020;23.992;2022-10-31T04:27:52;63.83;;;30.60;;
3249;SDS011;1637;42.020;23.992;2022-10-31T04:30:19;64.57;;;29.07;;
3249;SDS011;1637;42.020;23.992;2022-10-31T04:32:46;69.97;;;32.70;;
3249;SDS011;1637;42.020;23.992;2022-10-31T04:35:14;74.53;;;34.40;;
3249;SDS011;1637;42.020;23.992;2022-10-31T04:37:41;82.67;;;34.60;;
3249;SDS011;1637;42.020;23.992;2022-10-31T04:40:08;71.53;;;34.60;;
3249;SDS011;1637;42.020;23.992;2022-10-31T04:42:36;59.17;;;27.90;;
3249;SDS011;1637;42.020;23.992;2022-10-31T04:45:03;72.53;;;32.97;;
3249;SDS011;1637;42.020;23.992;2022-10-31T04:47:30;67.33;;;34.33;;
3249;SDS011;1637;42.020;23.992;2022-10-31T04:49:58;77.20;;;34.60;;
3249;SDS011;1637;42.020;23.992;2022-10-31T04:52:26;93.67;;;42.70;;
3249;SDS011;1637;42.020;23.992;2022-10-31T04:54:53;103.27;;;45.47;;
3249;SDS011;1637;42.020;23.992;2022-10-31T04:57:19;95.73;;;44.20;;
3249;SDS011;1637;42.020;23.992;2022-10-31T04:59:46;99.33;;;43.07;;
3249;SDS011;1637;42.020;23.992;2022-10-31T05:02:13;102.33;;;46.93;;
3249;SDS011;1637;42.020;23.992;2022-10-31T05:04:40;94.37;;;45.90;;
3249;SDS011;1637;42.020;23.992;2022-10-31T05:07:07;73.17;;;31.53;;
3249;SDS011;1637;42.020;23.992;2022-10-31T05:09:35;62.50;;;27.97;;
3249;SDS011;1637;42.020;23.992;2022-10-31T05:12:02;66.30;;;30.70;;
3249;SDS011;1637;42.020;23.992;2022-10-31T05:14:29;67.27;;;33.40;;
3249;SDS011;1637;42.020;23.992;2022-10-31T05:16:56;57.97;;;29.93;;
3249;SDS011;1637;42.020;23.992;2022-10-31T05:19:22;86.33;;;37.77;;
3249;SDS011;1637;42.020;23.992;2022-10-31T05:21:49;94.00;;;41.90;;
3249;SDS011;1637;42.020;23.992;2022-10-31T05:24:16;98.37;;;52.30;;
3249;SDS011;1637;42.020;23.992;2022-10-31T05:26:44;108.30;;;48.90;;
3249;SDS011;1637;42.020;23.992;2022-10-31T05:29:11;106.50;;;55.23;;
3249;SDS011;1637;42.020;23.992;2022-10-31T05:31:38;85.83;;;44.17;;
3249;SDS011;1637;42.020;23.992;2022-10-31T05:34:05;79.80;;;39.93;;
3249;SDS011;1637;42.020;23.992;2022-10-31T05:36:31;75.23;;;37.83;;
3249;SDS011;1637;42.020;23.992;2022-10-31T05:38:58;37.60;;;7.13;;
3249;SDS011;1637;42.020;23.992;2022-10-31T05:41:25;16.13;;;11.17;;
3249;SDS011;1637;42.020;23.992;2022-10-31T05:43:53;68.40;;;35.37;;
3249;SDS011;1637;42.020;23.992;2022-10-31T05:46:20;48.83;;;27.47;;
3249;SDS011;1637;42.020;23.992;2022-10-31T05:48:47;46.07;;;26.20;;
3249;SDS011;1637;42.020;23.992;2022-10-31T05:51:13;94.10;;;50.73;;
3249;SDS011;1637;42.020;23.992;2022-10-31T05:53:40;75.00;;;40.67;;
3249;SDS011;1637;42.020;23.992;2022-10-31T05:56:07;64.60;;;39.10;;
3249;SDS011;1637;42.020;23.992;2022-10-31T05:58:34;78.50;;;40.47;;
3249;SDS011;1637;42.020;23.992;2022-10-31T06:01:02;77.47;;;40.47;;
3249;SDS011;1637;42.020;23.992;2022-10-31T06:03:29;75.50;;;43.97;;
3249;SDS011;1637;42.020;23.992;2022-10-31T06:05:55;67.33;;;38.00;;
3249;SDS011;1637;42.020;23.992;2022-10-31T06:08:22;67.47;;;35.13;;
3249;SDS011;1637;42.020;23.992;2022-10-31T06:10:49;67.57;;;37.13;;
3249;SDS011;1637;42.020;23.992;2022-10-31T06:13:18;82.27;;;40.23;;
3249;SDS011;1637;42.020;23.992;2022-10-31T06:15:44;111.07;;;48.40;;
3249;SDS011;1637;42.020;23.992;2022-10-31T06:18:13;117.67;;;56.97;;
3249;SDS011;1637;42.020;23.992;2022-10-31T06:20:39;128.93;;;59.33;;
3249;SDS011;1637;42.020;23.992;2022-10-31T06:23:06;149.53;;;58.07;;
3249;SDS011;1637;42.020;23.992;2022-10-31T06:25:33;101.53;;;39.40;;
3249;SDS011;1637;42.020;23.992;2022-10-31T06:28:00;88.00;;;42.87;;
3249;SDS011;1637;42.020;23.992;2022-10-31T06:30:27;82.17;;;42.77;;
3249;SDS011;1637;42.020;23.992;2022-10-31T06:32:53;92.77;;;44.60;;
3249;SDS011;1637;42.020;23.992;2022-10-31T06:35:22;84.80;;;44.37;;
3249;SDS011;1637;42.020;23.992;2022-10-31T06:37:51;83.50;;;43.77;;
3249;SDS011;1637;42.020;23.992;2022-10-31T06:40:18;86.20;;;44.70;;
3249;SDS011;1637;42.020;23.992;2022-10-31T06:42:45;87.50;;;45.30;;
3249;SDS011;1637;42.020;23.992;2022-10-31T06:45:12;123.67;;;66.33;;
3249;SDS011;1637;42.020;23.992;2022-10-31T06:47:39;111.67;;;53.00;;
3249;SDS011;1637;42.020;23.992;2022-10-31T06:50:06;95.23;;;42.77;;
3249;SDS011;1637;42.020;23.992;2022-10-31T06:52:35;70.57;;;24.30;;
3249;SDS011;1637;42.020;23.992;2022-10-31T06:55:02;78.60;;;33.50;;
3249;SDS011;1637;42.020;23.992;2022-10-31T06:57:29;55.37;;;26.33;;
3249;SDS011;1637;42.020;23.992;2022-10-31T06:59:56;57.23;;;24.10;;
3249;SDS011;1637;42.020;23.992;2022-10-31T07:02:22;61.60;;;24.50;;
3249;SDS011;1637;42.020;23.992;2022-10-31T07:04:49;60.07;;;29.43;;
3249;SDS011;1637;42.020;23.992;2022-10-31T07:07:16;79.80;;;31.10;;
3249;SDS011;1637;42.020;23.992;2022-10-31T07:09:44;64.60;;;29.27;;
3249;SDS011;1637;42.020;23.992;2022-10-31T07:12:11;53.77;;;22.67;;
3249;SDS011;1637;42.020;23.992;2022-10-31T07:14:38;61.50;;;27.57;;
3249;SDS011;1637;42.020;23.992;2022-10-31T07:17:04;54.33;;;23.20;;
3249;SDS011;1637;42.020;23.992;2022-10-31T07:19:31;53.83;;;24.70;;
3249;SDS011;1637;42.020;23.992;2022-10-31T07:21:58;75.53;;;33.07;;
3249;SDS011;1637;42.020;23.992;2022-10-31T07:24:25;69.30;;;31.03;;
3249;SDS011;1637;42.020;23.992;2022-10-31T07:26:53;74.50;;;28.83;;
3249;SDS011;1637;42.020;23.992;2022-10-31T07:29:20;73.77;;;33.70;;
3249;SDS011;1637;42.020;23.992;2022-10-31T07:31:46;83.73;;;31.43;;
3249;SDS011;1637;42.020;23.992;2022-10-31T07:34:13;76.10;;;38.93;;
3249;SDS011;1637;42.020;23.992;2022-10-31T07:36:40;105.40;;;47.00;;
3249;SDS011;1637;42.020;23.992;2022-10-31T07:39:07;77.20;;;43.90;;
3249;SDS011;1637;42.020;23.992;2022-10-31T07:41:34;54.57;;;29.67;;
3249;SDS011;1637;42.020;23.992;2022-10-31T07:44:02;60.23;;;27.53;;
3249;SDS011;1637;42.020;23.992;2022-10-31T07:46:29;68.93;;;34.60;;
3249;SDS011;1637;42.020;23.992;2022-10-31T07:48:55;64.13;;;32.70;;
3249;SDS011;1637;42.020;23.992;2022-10-31T07:51:22;45.47;;;26.43;;
3249;SDS011;1637;42.020;23.992;2022-10-31T07:53:49;63.17;;;34.43;;
3249;SDS011;1637;42.020;23.992;2022-10-31T07:56:16;53.50;;;30.10;;
3249;SDS011;1637;42.020;23.992;2022-10-31T07:58:43;45.60;;;21.50;;
3249;SDS011;1637;42.020;23.992;2022-10-31T08:01:11;50.60;;;26.50;;
3249;SDS011;1637;42.020;23.992;2022-10-31T08:03:37;46.10;;;23.87;;
3249;SDS011;1637;42.020;23.992;2022-10-31T08:06:04;51.37;;;22.60;;
3249;SDS011;1637;42.020;23.992;2022-10-31T08:08:31;34.93;;;16.00;;
3249;SDS011;1637;42.020;23.992;2022-10-31T08:10:58;39.53;;;20.50;;
3249;SDS011;1637;42.020;23.992;2022-10-31T08:13:25;22.23;;;16.40;;
3249;SDS011;1637;42.020;23.992;2022-10-31T08:15:52;16.33;;;6.70;;
3249;SDS011;1637;42.020;23.992;2022-10-31T08:18:20;9.17;;;4.20;;
3249;SDS011;1637;42.020;23.992;2022-10-31T08:20:48;12.27;;;6.87;;
3249;SDS011;1637;42.020;23.992;2022-10-31T08:23:15;3.97;;;3.60;;
3249;SDS011;1637;42.020;23.992;2022-10-31T08:25:42;8.13;;;2.93;;
3249;SDS011;1637;42.020;23.992;2022-10-31T08:28:11;7.47;;;2.00;;
3249;SDS011;1637;42.020;23.992;2022-10-31T08:30:39;9.37;;;5.63;;
3249;SDS011;1637;42.020;23.992;2022-10-31T08:33:08;19.27;;;6.43;;
3249;SDS011;1637;42.020;23.992;2022-10-31T08:35:38;10.33;;;4.10;;
3249;SDS011;1637;42.020;23.992;2022-10-31T08:38:04;20.40;;;9.10;;
3249;SDS011;1637;42.020;23.992;2022-10-31T08:40:32;8.10;;;2.43;;
3249;SDS011;1637;42.020;23.992;2022-10-31T08:43:00;6.43;;;1.77;;
3249;SDS011;1637;42.020;23.992;2022-10-31T08:45:29;7.70;;;2.20;;
3249;SDS011;1637;42.020;23.992;2022-10-31T08:47:57;14.43;;;5.70;;
3249;SDS011;1637;42.020;23.992;2022-10-31T08:50:25;13.80;;;4.07;;
3249;SDS011;1637;42.020;23.992;2022-10-31T08:52:53;3.13;;;1.70;;
3249;SDS011;1637;42.020;23.992;2022-10-31T08:55:25;6.57;;;2.40;;
3249;SDS011;1637;42.020;23.992;2022-10-31T08:57:54;8.60;;;3.70;;
3249;SDS011;1637;42.020;23.992;2022-10-31T09:00:21;10.90;;;3.10;;
3249;SDS011;1637;42.020;23.992;2022-10-31T09:02:51;10.63;;;2.60;;
3249;SDS011;1637;42.020;23.992;2022-10-31T09:05:21;11.50;;;2.17;;
3249;SDS011;1637;42.020;23.992;2022-10-31T09:07:48;5.13;;;2.00;;
3249;SDS011;1637;42.020;23.992;2022-10-31T09:10:16;9.03;;;1.83;;
3249;SDS011;1637;42.020;23.992;2022-10-31T09:12:43;7.30;;;1.90;;
3249;SDS011;1637;42.020;23.992;2022-10-31T09:15:09;6.10;;;2.10;;
3249;SDS011;1637;42.020;23.992;2022-10-31T09:17:36;4.33;;;1.67;;
3249;SDS011;1637;42.020;23.992;2022-10-31T09:20:03;8.00;;;2.10;;
3249;SDS011;1637;42.020;23.992;2022-10-31T09:22:30;4.50;;;2.40;;
3249;SDS011;1637;42.020;23.992;2022-10-31T09:24:57;5.77;;;2.10;;
3249;SDS011;1637;42.020;23.992;2022-10-31T09:27:25;7.97;;;1.93;;
3249;SDS011;1637;42.020;23.992;2022-10-31T09:29:52;6.43;;;2.30;;
3249;SDS011;1637;42.020;23.992;2022-10-31T09:32:19;14.53;;;2.63;;
3249;SDS011;1637;42.020;23.992;2022-10-31T09:34:46;19.43;;;3.67;;
3249;SDS011;1637;42.020;23.992;2022-10-31T09:37:12;14.07;;;6.73;;
3249;SDS011;1637;42.020;23.992;2022-10-31T09:39:39;12.37;;;7.03;;
3249;SDS011;1637;42.020;23.992;2022-10-31T09:42:15;8.13;;;1.97;;
3249;SDS011;1637;42.020;23.992;2022-10-31T09:44:56;6.80;;;2.80;;
3249;SDS011;1637;42.020;23.992;2022-10-31T09:47:33;7.53;;;2.20;;
3249;SDS011;1637;42.020;23.992;2022-10-31T09:50:13;6.30;;;2.40;;
3249;SDS011;1637;42.020;23.992;2022-10-31T09:52:45;3.77;;;2.33;;
3249;SDS011;1637;42.020;23.992;2022-10-31T09:55:30;10.33;;;2.27;;
3249;SDS011;1637;42.020;23.992;2022-10-31T09:58:01;18.40;;;2.70;;
3249;SDS011;1637;42.020;23.992;2022-10-31T10:00:30;8.20;;;2.57;;
3249;SDS011;1637;42.020;23.992;2022-10-31T10:02:59;5.43;;;1.47;;
3249;SDS011;1637;42.020;23.992;2022-10-31T10:05:38;10.63;;;2.13;;
3249;SDS011;1637;42.020;23.992;2022-10-31T10:08:12;8.43;;;2.50;;
3249;SDS011;1637;42.020;23.992;2022-10-31T10:10:47;12.30;;;2.37;;
3249;SDS011;1637;42.020;23.992;2022-10-31T10:13:23;4.97;;;1.90;;
3249;SDS011;1637;42.020;23.992;2022-10-31T10:16:16;13.53;;;4.60;;
3249;SDS011;1637;42.020;23.992;2022-10-31T10:19:00;9.77;;;2.53;;
3249;SDS011;1637;42.020;23.992;2022-10-31T10:21:38;11.57;;;2.77;;
3249;SDS011;1637;42.020;23.992;2022-10-31T10:24:14;10.10;;;3.27;;
3249;SDS011;1637;42.020;23.992;2022-10-31T10:26:50;6.07;;;2.57;;
3249;SDS011;1637;42.020;23.992;2022-10-31T10:29:29;11.47;;;2.37;;
3249;SDS011;1637;42.020;23.992;2022-10-31T10:32:03;8.23;;;1.97;;
3249;SDS011;1637;42.020;23.992;2022-10-31T10:34:36;10.27;;;2.90;;
3249;SDS011;1637;42.020;23.992;2022-10-31T10:37:08;8.37;;;2.60;;
3249;SDS011;1637;42.020;23.992;2022-10-31T10:39:45;12.13;;;3.40;;
3249;SDS011;1637;42.020;23.992;2022-10-31T10:42:16;8.93;;;3.30;;
3249;SDS011;1637;42.020;23.992;2022-10-31T10:45:00;12.90;;;3.80;;
3249;SDS011;1637;42.020;23.992;2022-10-31T10:47:59;11.93;;;4.60;;
3249;SDS011;1637;42.020;23.992;2022-10-31T10:50:36;6.97;;;4.17;;
3249;SDS011;1637;42.020;23.992;2022-10-31T10:53:09;6.00;;;2.30;;
3249;SDS011;1637;42.020;23.992;2022-10-31T10:55:56;5.10;;;2.40;;
3249;SDS011;1637;42.020;23.992;2022-10-31T10:58:29;6.53;;;2.87;;
3249;SDS011;1637;42.020;23.992;2022-10-31T11:00:56;8.00;;;2.80;;
3249;SDS011;1637;42.020;23.992;2022-10-31T11:03:25;9.03;;;2.60;;
3249;SDS011;1637;42.020;23.992;2022-10-31T11:05:52;21.40;;;4.80;;
3249;SDS011;1637;42.020;23.992;2022-10-31T11:08:25;8.20;;;2.80;;
3249;SDS011;1637;42.020;23.992;2022-10-31T11:10:56;7.70;;;2.30;;
3249;SDS011;1637;42.020;23.992;2022-10-31T11:13:25;5.07;;;2.03;;
3249;SDS011;1637;42.020;23.992;2022-10-31T11:16:00;8.97;;;3.50;;
3249;SDS011;1637;42.020;23.992;2022-10-31T11:18:31;7.87;;;3.07;;
3249;SDS011;1637;42.020;23.992;2022-10-31T11:21:01;6.73;;;3.30;;
3249;SDS011;1637;42.020;23.992;2022-10-31T11:23:29;7.60;;;2.83;;
3249;SDS011;1637;42.020;23.992;2022-10-31T11:25:57;7.43;;;2.20;;
3249;SDS011;1637;42.020;23.992;2022-10-31T11:28:25;8.97;;;2.10;;
3249;SDS011;1637;42.020;23.992;2022-10-31T11:30:55;17.33;;;3.67;;
3249;SDS011;1637;42.020;23.992;2022-10-31T11:33:25;6.30;;;2.53;;
3249;SDS011;1637;42.020;23.992;2022-10-31T11:35:57;11.93;;;3.50;;
3249;SDS011;1637;42.020;23.992;2022-10-31T11:38:26;4.53;;;2.30;;
3249;SDS011;1637;42.020;23.992;2022-10-31T11:41:05;16.63;;;5.87;;
3249;SDS011;1637;42.020;23.992;2022-10-31T11:43:38;6.60;;;2.87;;
3249;SDS011;1637;42.020;23.992;2022-10-31T11:46:15;4.40;;;2.20;;
3249;SDS011;1637;42.020;23.992;2022-10-31T11:48:47;6.97;;;2.80;;
3249;SDS011;1637;42.020;23.992;2022-10-31T11:51:20;3.47;;;1.83;;
3249;SDS011;1637;42.020;23.992;2022-10-31T11:53:50;15.03;;;2.83;;
3249;SDS011;1637;42.020;23.992;2022-10-31T11:56:18;2.70;;;1.87;;
3249;SDS011;1637;42.020;23.992;2022-10-31T11:58:54;6.73;;;2.83;;
3249;SDS011;1637;42.020;23.992;2022-10-31T12:01:23;32.57;;;3.30;;
3249;SDS011;1637;42.020;23.992;2022-10-31T12:03:54;4.00;;;1.83;;
3249;SDS011;1637;42.020;23.992;2022-10-31T12:06:31;10.50;;;3.47;;
3249;SDS011;1637;42.020;23.992;2022-10-31T12:09:00;4.83;;;1.60;;
3249;SDS011;1637;42.020;23.992;2022-10-31T12:11:33;4.37;;;2.50;;
3249;SDS011;1637;42.020;23.992;2022-10-31T12:14:12;11.43;;;3.37;;
3249;SDS011;1637;42.020;23.992;2022-10-31T12:16:52;9.03;;;2.70;;
3249;SDS011;1637;42.020;23.992;2022-10-31T12:19:27;3.57;;;1.70;;
3249;SDS011;1637;42.020;23.992;2022-10-31T12:22:05;11.03;;;2.60;;
3249;SDS011;1637;42.020;23.992;2022-10-31T12:24:43;6.47;;;2.80;;
3249;SDS011;1637;42.020;23.992;2022-10-31T12:27:21;11.30;;;7.00;;
3249;SDS011;1637;42.020;23.992;2022-10-31T12:30:01;13.07;;;6.20;;
3249;SDS011;1637;42.020;23.992;2022-10-31T12:32:40;10.47;;;3.00;;
3249;SDS011;1637;42.020;23.992;2022-10-31T12:38:18;14.90;;;5.40;;
3249;SDS011;1637;42.020;23.992;2022-10-31T12:41:12;6.53;;;2.20;;
3249;SDS011;1637;42.020;23.992;2022-10-31T12:43:48;7.97;;;2.70;;
3249;SDS011;1637;42.020;23.992;2022-10-31T12:46:25;3.90;;;2.80;;
3249;SDS011;1637;42.020;23.992;2022-10-31T12:49:05;4.07;;;2.50;;
3249;SDS011;1637;42.020;23.992;2022-10-31T12:51:46;7.60;;;3.40;;
3249;SDS011;1637;42.020;23.992;2022-10-31T12:54:30;9.60;;;3.33;;
3249;SDS011;1637;42.020;23.992;2022-10-31T12:57:10;5.27;;;3.20;;
3249;SDS011;1637;42.020;23.992;2022-10-31T12:59:45;2.53;;;1.70;;
3249;SDS011;1637;42.020;23.992;2022-10-31T13:02:17;5.77;;;2.57;;
3249;SDS011;1637;42.020;23.992;2022-10-31T13:04:48;7.80;;;2.20;;
3249;SDS011;1637;42.020;23.992;2022-10-31T13:07:20;9.27;;;2.57;;
3249;SDS011;1637;42.020;23.992;2022-10-31T13:09:53;3.30;;;1.93;;
3249;SDS011;1637;42.020;23.992;2022-10-31T13:12:25;4.60;;;1.93;;
3249;SDS011;1637;42.020;23.992;2022-10-31T13:14:56;10.13;;;2.17;;
3249;SDS011;1637;42.020;23.992;2022-10-31T13:17:29;5.60;;;1.83;;
3249;SDS011;1637;42.020;23.992;2022-10-31T13:20:05;4.57;;;2.30;;
3249;SDS011;1637;42.020;23.992;2022-10-31T13:22:42;6.17;;;1.70;;
3249;SDS011;1637;42.020;23.992;2022-10-31T13:25:14;3.97;;;1.70;;
3249;SDS011;1637;42.020;23.992;2022-10-31T13:27:47;5.87;;;2.17;;
3249;SDS011;1637;42.020;23.992;2022-10-31T13:30:18;8.13;;;2.80;;
3249;SDS011;1637;42.020;23.992;2022-10-31T13:32:47;6.47;;;2.37;;
3249;SDS011;1637;42.020;23.992;2022-10-31T13:35:18;7.20;;;3.07;;
3249;SDS011;1637;42.020;23.992;2022-10-31T13:37:51;5.67;;;2.50;;
3249;SDS011;1637;42.020;23.992;2022-10-31T13:40:33;10.73;;;3.20;;
3249;SDS011;1637;42.020;23.992;2022-10-31T13:43:05;5.77;;;2.30;;
3249;SDS011;1637;42.020;23.992;2022-10-31T13:45:47;9.97;;;2.40;;
3249;SDS011;1637;42.020;23.992;2022-10-31T13:48:28;9.07;;;3.17;;
3249;SDS011;1637;42.020;23.992;2022-10-31T13:51:02;6.33;;;2.57;;
3249;SDS011;1637;42.020;23.992;2022-10-31T13:53:36;13.17;;;2.80;;
3249;SDS011;1637;42.020;23.992;2022-10-31T13:56:11;12.63;;;1.90;;
3249;SDS011;1637;42.020;23.992;2022-10-31T13:58:42;3.27;;;2.60;;
3249;SDS011;1637;42.020;23.992;2022-10-31T14:01:22;9.13;;;3.10;;
3249;SDS011;1637;42.020;23.992;2022-10-31T14:03:55;12.30;;;3.77;;
3249;SDS011;1637;42.020;23.992;2022-10-31T14:06:34;9.70;;;2.83;;
3249;SDS011;1637;42.020;23.992;2022-10-31T14:09:02;9.70;;;3.40;;
3249;SDS011;1637;42.020;23.992;2022-10-31T14:11:31;7.33;;;3.37;;
3249;SDS011;1637;42.020;23.992;2022-10-31T14:13:58;8.43;;;3.30;;
3249;SDS011;1637;42.020;23.992;2022-10-31T14:16:27;6.00;;;3.50;;
3249;SDS011;1637;42.020;23.992;2022-10-31T14:18:58;11.43;;;3.60;;
3249;SDS011;1637;42.020;23.992;2022-10-31T14:21:29;8.30;;;3.23;;
3249;SDS011;1637;42.020;23.992;2022-10-31T14:23:57;9.13;;;3.60;;
3249;SDS011;1637;42.020;23.992;2022-10-31T14:26:32;17.93;;;6.10;;
3249;SDS011;1637;42.020;23.992;2022-10-31T14:29:01;13.97;;;5.23;;
3249;SDS011;1637;42.020;23.992;2022-10-31T14:31:44;7.80;;;3.80;;
3249;SDS011;1637;42.020;23.992;2022-10-31T14:34:19;17.30;;;4.70;;
3249;SDS011;1637;42.020;23.992;2022-10-31T14:36:52;12.17;;;3.93;;
3249;SDS011;1637;42.020;23.992;2022-10-31T14:39:34;9.80;;;3.60;;
3249;SDS011;1637;42.020;23.992;2022-10-31T14:42:12;13.83;;;6.60;;
3249;SDS011;1637;42.020;23.992;2022-10-31T14:45:06;10.30;;;5.20;;
3249;SDS011;1637;42.020;23.992;2022-10-31T14:50:42;20.23;;;6.73;;
3249;SDS011;1637;42.020;23.992;2022-10-31T14:53:15;7.30;;;4.90;;
3249;SDS011;1637;42.020;23.992;2022-10-31T14:55:47;12.70;;;5.63;;
3249;SDS011;1637;42.020;23.992;2022-10-31T14:58:19;12.10;;;5.23;;
3249;SDS011;1637;42.020;23.992;2022-10-31T15:00:48;14.90;;;6.60;;
3249;SDS011;1637;42.020;23.992;2022-10-31T15:03:21;18.53;;;7.37;;
3249;SDS011;1637;42.020;23.992;2022-10-31T15:05:52;22.53;;;8.87;;
3249;SDS011;1637;42.020;23.992;2022-10-31T15:08:31;29.53;;;9.17;;
3249;SDS011;1637;42.020;23.992;2022-10-31T15:11:06;22.37;;;10.27;;